createdAt,value
2018-10-18T00:01:27.757Z,68.80
2018-10-18T00:03:29.789Z,68.80
2018-10-18T00:05:31.775Z,68.90
2018-10-18T00:07:33.776Z,68.90
2018-10-18T00:09:35.773Z,68.90
2018-10-18T00:11:37.787Z,68.90
2018-10-18T00:13:39.813Z,69.70
2018-10-18T00:15:41.779Z,68.80
2018-10-18T00:17:43.804Z,68.80
2018-10-18T00:19:45.785Z,68.90
2018-10-18T00:21:47.805Z,69.60
2018-10-18T00:23:49.805Z,69.70
2018-10-18T00:25:51.799Z,68.90
2018-10-18T00:27:53.821Z,68.90
2018-10-18T00:29:55.924Z,68.80
2018-10-18T00:31:57.888Z,69.00
2018-10-18T00:33:59.902Z,68.90
2018-10-18T00:36:01.916Z,68.90
2018-10-18T00:38:03.919Z,68.90
2018-10-18T00:40:06.420Z,68.80
2018-10-18T00:42:08.532Z,69.70
2018-10-18T00:44:10.846Z,69.00
2018-10-18T00:46:12.795Z,68.90
2018-10-18T00:48:14.869Z,69.00
2018-10-18T00:50:16.918Z,68.90
2018-10-18T00:52:18.825Z,68.90
2018-10-18T00:54:20.816Z,69.00
2018-10-18T00:56:22.841Z,69.00
2018-10-18T00:58:24.837Z,69.00
2018-10-18T01:00:26.835Z,69.00
2018-10-18T01:02:28.860Z,69.00
2018-10-18T01:04:30.856Z,69.00
2018-10-18T01:06:32.859Z,68.90
2018-10-18T01:08:34.823Z,69.00
2018-10-18T01:10:36.853Z,69.00
2018-10-18T01:12:38.940Z,68.90
2018-10-18T01:14:40.849Z,69.00
2018-10-18T01:16:42.873Z,69.00
2018-10-18T01:18:44.882Z,69.00
2018-10-18T01:20:46.874Z,69.00
2018-10-18T01:22:48.880Z,69.00
2018-10-18T01:24:50.890Z,69.00
2018-10-18T01:26:52.915Z,68.90
2018-10-18T01:28:54.929Z,68.90
2018-10-18T01:30:56.960Z,68.90
2018-10-18T01:32:58.960Z,68.90
2018-10-18T01:35:00.991Z,69.00
2018-10-18T01:37:02.977Z,68.90
2018-10-18T01:39:04.982Z,68.90
2018-10-18T01:41:07.002Z,68.90
2018-10-18T01:43:09.010Z,68.90
2018-10-18T01:45:11.018Z,69.00
2018-10-18T01:47:13.017Z,68.90
2018-10-18T01:49:15.004Z,68.90
2018-10-18T01:51:16.989Z,69.00
2018-10-18T01:53:19.017Z,69.00
2018-10-18T01:55:21.016Z,69.00
2018-10-18T01:57:23.185Z,69.00
2018-10-18T01:59:25.170Z,69.00
2018-10-18T02:01:27.147Z,69.00
2018-10-18T02:03:29.186Z,69.00
2018-10-18T02:05:31.222Z,69.00
2018-10-18T02:07:33.203Z,69.00
2018-10-18T02:09:35.289Z,69.00
2018-10-18T02:11:37.272Z,68.90
2018-10-18T02:13:39.299Z,68.90
2018-10-18T02:15:41.300Z,69.00
2018-10-18T02:17:43.282Z,68.90
2018-10-18T02:19:45.270Z,69.00
2018-10-18T02:21:47.284Z,68.90
2018-10-18T02:23:49.281Z,69.00
2018-10-18T02:25:51.292Z,69.00
2018-10-18T02:27:53.297Z,68.90
2018-10-18T02:29:55.376Z,68.90
2018-10-18T02:31:57.361Z,68.90
2018-10-18T02:33:59.363Z,68.90
2018-10-18T02:36:01.423Z,68.90
2018-10-18T02:38:03.434Z,68.90
2018-10-18T02:40:05.507Z,68.90
2018-10-18T02:42:07.535Z,69.00
2018-10-18T02:44:09.522Z,68.90
2018-10-18T02:46:11.567Z,68.90
2018-10-18T02:48:13.609Z,69.00
2018-10-18T02:50:16.020Z,68.90
2018-10-18T02:52:18.052Z,68.90
2018-10-18T02:54:20.084Z,68.90
2018-10-18T02:56:22.051Z,68.80
2018-10-18T02:58:24.073Z,68.80
2018-10-18T03:00:26.206Z,68.90
2018-10-18T03:02:28.191Z,68.90
2018-10-18T03:04:30.223Z,68.80
2018-10-18T03:06:32.217Z,69.60
2018-10-18T03:08:34.238Z,68.90
2018-10-18T03:10:36.236Z,68.70
2018-10-18T03:12:38.222Z,68.80
2018-10-18T03:14:40.292Z,68.70
2018-10-18T03:16:42.325Z,68.70
2018-10-18T03:18:44.328Z,68.70
2018-10-18T03:20:46.335Z,68.70
2018-10-18T03:22:48.320Z,68.70
2018-10-18T03:24:50.351Z,68.70
2018-10-18T03:26:52.380Z,68.70
2018-10-18T03:28:54.381Z,68.60
2018-10-18T03:30:56.387Z,68.70
2018-10-18T03:32:58.386Z,68.60
2018-10-18T03:35:00.411Z,68.60
2018-10-18T03:37:02.393Z,68.60
2018-10-18T03:39:04.373Z,68.60
2018-10-18T03:41:06.391Z,68.60
2018-10-18T03:43:08.373Z,68.60
2018-10-18T03:45:10.377Z,68.70
2018-10-18T03:47:12.415Z,68.70
2018-10-18T03:49:14.408Z,68.70
2018-10-18T03:51:16.393Z,68.60
2018-10-18T03:53:18.436Z,68.70
2018-10-18T03:55:20.407Z,68.70
2018-10-18T03:57:22.393Z,68.70
2018-10-18T03:59:24.432Z,68.70
2018-10-18T04:01:26.404Z,68.70
2018-10-18T04:03:28.391Z,68.70
2018-10-18T04:05:30.461Z,68.70
2018-10-18T04:07:32.445Z,68.70
2018-10-18T04:09:34.478Z,68.70
2018-10-18T04:11:36.508Z,68.70
2018-10-18T04:13:38.529Z,68.70
2018-10-18T04:15:40.587Z,68.70
2018-10-18T04:17:42.588Z,68.70
2018-10-18T04:19:44.597Z,68.80
2018-10-18T04:21:46.623Z,68.70
2018-10-18T04:23:48.620Z,68.80
2018-10-18T04:25:50.681Z,68.70
2018-10-18T04:27:52.724Z,68.90
2018-10-18T04:29:54.757Z,68.90
2018-10-18T04:31:56.739Z,68.90
2018-10-18T04:33:59.074Z,68.90
2018-10-18T04:36:01.111Z,69.00
2018-10-18T04:38:03.071Z,69.00
2018-10-18T04:40:05.088Z,69.00
2018-10-18T04:42:07.192Z,69.10
2018-10-18T04:44:09.090Z,69.20
2018-10-18T04:46:11.119Z,69.10
2018-10-18T04:48:13.150Z,69.80
2018-10-18T04:50:15.123Z,69.20
2018-10-18T04:52:17.167Z,69.20
2018-10-18T04:54:19.168Z,68.40
2018-10-18T04:56:21.158Z,69.30
2018-10-18T04:58:23.160Z,69.30
2018-10-18T05:00:25.164Z,69.20
2018-10-18T05:02:27.154Z,70.20
2018-10-18T05:04:29.148Z,69.40
2018-10-18T05:06:31.150Z,69.40
2018-10-18T05:08:33.133Z,69.40
2018-10-18T05:10:35.166Z,69.20
2018-10-18T05:12:37.149Z,69.20
2018-10-18T05:14:39.186Z,69.20
2018-10-18T05:16:41.214Z,69.30
2018-10-18T05:18:43.200Z,69.30
2018-10-18T05:20:45.212Z,70.40
2018-10-18T05:22:47.200Z,69.60
2018-10-18T05:24:49.233Z,69.50
2018-10-18T05:26:51.232Z,69.10
2018-10-18T05:28:53.237Z,69.60
2018-10-18T05:30:55.317Z,69.00
2018-10-18T05:32:57.252Z,69.00
2018-10-18T05:34:59.245Z,68.90
2018-10-18T05:37:01.316Z,68.90
2018-10-18T05:39:03.262Z,68.90
2018-10-18T05:41:05.271Z,68.70
2018-10-18T05:43:07.307Z,68.90
2018-10-18T05:45:09.237Z,68.70
2018-10-18T05:47:11.290Z,69.20
2018-10-18T05:49:13.346Z,68.70
2018-10-18T05:51:15.279Z,68.70
2018-10-18T05:53:17.418Z,68.70
2018-10-18T05:55:19.752Z,68.60
2018-10-18T05:57:21.773Z,68.60
2018-10-18T05:59:23.770Z,68.50
2018-10-18T06:01:25.763Z,68.60
2018-10-18T06:03:27.763Z,68.50
2018-10-18T06:05:29.794Z,68.70
2018-10-18T06:07:31.768Z,68.70
2018-10-18T06:09:33.863Z,68.70
2018-10-18T06:11:35.814Z,68.70
2018-10-18T06:13:37.836Z,68.70
2018-10-18T06:15:39.824Z,68.70
2018-10-18T06:17:41.851Z,68.70
2018-10-18T06:19:43.834Z,68.70
2018-10-18T06:21:45.857Z,68.60
2018-10-18T06:23:47.876Z,68.70
2018-10-18T06:25:49.858Z,68.80
2018-10-18T06:27:51.866Z,68.70
2018-10-18T06:29:53.858Z,68.70
2018-10-18T06:31:56.208Z,68.20
2018-10-18T06:33:58.232Z,68.70
2018-10-18T06:36:00.226Z,68.70
2018-10-18T06:38:02.262Z,68.80
2018-10-18T06:40:04.267Z,69.50
2018-10-18T06:42:06.260Z,68.60
2018-10-18T06:44:08.296Z,69.40
2018-10-18T06:46:10.300Z,68.50
2018-10-18T06:48:12.281Z,68.50
2018-10-18T06:50:14.317Z,68.60
2018-10-18T06:52:16.348Z,68.60
2018-10-18T06:54:18.467Z,68.40
2018-10-18T06:56:20.366Z,68.50
2018-10-18T06:58:22.376Z,68.40
2018-10-18T07:00:24.504Z,68.40
2018-10-18T07:02:26.383Z,68.40
2018-10-18T07:04:28.360Z,68.40
2018-10-18T07:06:30.410Z,68.20
2018-10-18T07:08:32.411Z,68.30
2018-10-18T07:10:34.407Z,68.10
2018-10-18T07:12:36.421Z,68.30
2018-10-18T07:14:38.417Z,68.20
2018-10-18T07:16:40.389Z,68.30
2018-10-18T07:18:42.420Z,68.20
2018-10-18T07:20:44.452Z,68.10
2018-10-18T07:22:46.455Z,68.40
2018-10-18T07:24:48.435Z,68.40
2018-10-18T07:26:50.453Z,68.60
2018-10-18T07:28:52.482Z,68.50
2018-10-18T07:30:54.460Z,68.70
2018-10-18T07:32:56.498Z,68.70
2018-10-18T07:34:58.489Z,68.70
2018-10-18T07:37:00.493Z,68.50
2018-10-18T07:39:02.493Z,68.80
2018-10-18T07:41:04.596Z,68.40
2018-10-18T07:43:06.620Z,68.50
2018-10-18T07:45:08.608Z,68.50
2018-10-18T07:47:10.633Z,68.60
2018-10-18T07:49:12.663Z,68.60
2018-10-18T07:51:14.690Z,68.60
2018-10-18T07:53:16.887Z,68.60
2018-10-18T07:55:18.745Z,68.70
2018-10-18T07:57:20.762Z,68.60
2018-10-18T07:59:22.779Z,68.70
2018-10-18T08:01:24.807Z,68.70
2018-10-18T08:03:26.841Z,68.70
2018-10-18T08:05:28.848Z,68.70
2018-10-18T08:07:30.838Z,68.70
2018-10-18T08:09:32.871Z,68.80
2018-10-18T08:11:34.867Z,68.90
2018-10-18T08:13:36.897Z,70.00
2018-10-18T08:15:38.932Z,68.90
2018-10-18T08:17:40.912Z,68.80
2018-10-18T08:19:42.940Z,69.20
2018-10-18T08:21:44.933Z,69.00
2018-10-18T08:23:46.915Z,69.50
2018-10-18T08:25:48.952Z,69.40
2018-10-18T08:27:50.945Z,69.30
2018-10-18T08:29:52.909Z,69.30
2018-10-18T08:31:55.252Z,69.10
2018-10-18T08:33:57.297Z,69.10
2018-10-18T08:35:59.307Z,69.00
2018-10-18T08:38:01.532Z,69.10
2018-10-18T08:40:03.318Z,69.10
2018-10-18T08:42:05.348Z,69.40
2018-10-18T08:44:07.380Z,69.80
2018-10-18T08:46:09.337Z,69.50
2018-10-18T08:48:11.337Z,69.90
2018-10-18T08:50:13.377Z,69.70
2018-10-18T08:52:15.371Z,69.50
2018-10-18T08:54:17.396Z,69.90
2018-10-18T08:56:19.425Z,69.50
2018-10-18T08:58:21.404Z,70.30
2018-10-18T09:00:23.401Z,69.80
2018-10-18T09:02:25.415Z,69.80
2018-10-18T09:04:27.389Z,69.90
2018-10-18T09:06:29.388Z,69.20
2018-10-18T09:08:31.409Z,69.90
2018-10-18T09:10:33.347Z,69.90
2018-10-18T09:12:35.359Z,69.90
2018-10-18T09:14:37.315Z,69.80
2018-10-18T09:16:39.348Z,69.90
2018-10-18T09:18:41.317Z,69.80
2018-10-18T09:20:43.349Z,69.60
2018-10-18T09:22:45.316Z,69.60
2018-10-18T09:24:47.319Z,69.90
2018-10-18T09:26:49.329Z,69.50
2018-10-18T09:28:51.358Z,69.50
2018-10-18T09:30:53.345Z,69.40
2018-10-18T09:32:55.372Z,69.70
2018-10-18T09:34:57.376Z,69.40
2018-10-18T09:36:59.409Z,69.40
2018-10-18T09:39:01.880Z,69.50
2018-10-18T09:41:03.908Z,69.50
2018-10-18T09:43:05.968Z,69.50
2018-10-18T09:45:07.913Z,69.40
2018-10-18T09:47:09.905Z,69.40
2018-10-18T09:49:11.907Z,69.40
2018-10-18T09:51:13.914Z,69.40
2018-10-18T09:53:15.908Z,69.40
2018-10-18T09:55:18.012Z,69.40
2018-10-18T09:57:19.946Z,69.50
2018-10-18T09:59:21.940Z,69.40
2018-10-18T10:01:24.913Z,69.40
2018-10-18T10:03:26.905Z,69.20
2018-10-18T10:05:28.949Z,69.40
2018-10-18T10:07:30.975Z,69.50
2018-10-18T10:09:32.939Z,69.50
2018-10-18T10:11:35.005Z,69.80
2018-10-18T10:13:36.992Z,69.50
2018-10-18T10:15:39.352Z,69.50
2018-10-18T10:17:41.462Z,69.30
2018-10-18T10:19:43.637Z,69.30
2018-10-18T10:21:45.676Z,70.10
2018-10-18T10:23:47.666Z,69.40
2018-10-18T10:25:49.644Z,69.30
2018-10-18T10:27:51.652Z,69.40
2018-10-18T10:29:53.636Z,69.20
2018-10-18T10:31:55.690Z,69.30
2018-10-18T10:33:57.696Z,69.30
2018-10-18T10:35:59.675Z,69.30
2018-10-18T10:38:01.710Z,69.30
2018-10-18T10:40:03.716Z,69.20
2018-10-18T10:42:05.767Z,69.20
2018-10-18T10:44:07.792Z,69.40
2018-10-18T10:46:09.776Z,69.10
2018-10-18T10:48:11.801Z,69.20
2018-10-18T10:50:14.182Z,69.20
2018-10-18T10:52:16.240Z,69.10
2018-10-18T10:54:18.259Z,69.90
2018-10-18T10:56:20.225Z,69.20
2018-10-18T10:58:22.233Z,69.20
2018-10-18T11:00:24.264Z,69.20
2018-10-18T11:02:26.259Z,70.10
2018-10-18T11:04:28.287Z,69.00
2018-10-18T11:06:30.310Z,69.10
2018-10-18T11:08:32.358Z,69.10
2018-10-18T11:10:34.370Z,69.10
2018-10-18T11:12:36.407Z,69.00
2018-10-18T11:14:38.454Z,69.10
2018-10-18T11:16:40.426Z,69.20
2018-10-18T11:18:42.520Z,69.00
2018-10-18T11:20:44.546Z,69.00
2018-10-18T11:22:46.568Z,69.00
2018-10-18T11:24:48.654Z,70.00
2018-10-18T11:26:50.561Z,68.90
2018-10-18T11:28:52.604Z,69.00
2018-10-18T11:30:54.671Z,69.00
2018-10-18T11:32:56.741Z,69.00
2018-10-18T11:34:58.806Z,69.00
2018-10-18T11:37:00.833Z,69.00
2018-10-18T11:39:02.823Z,69.00
2018-10-18T11:41:04.820Z,68.90
2018-10-18T11:43:06.860Z,69.00
2018-10-18T11:45:08.841Z,68.90
2018-10-18T11:47:10.853Z,68.90
2018-10-18T11:49:12.862Z,69.20
2018-10-18T11:51:14.846Z,68.90
2018-10-18T11:53:16.848Z,69.00
2018-10-18T11:55:18.852Z,68.90
2018-10-18T11:57:20.828Z,68.90
2018-10-18T11:59:22.850Z,68.80
2018-10-18T12:01:24.928Z,68.90
2018-10-18T12:03:26.841Z,68.90
2018-10-18T12:05:28.872Z,68.80
2018-10-18T12:07:30.885Z,68.80
2018-10-18T12:09:32.890Z,68.90
2018-10-18T12:11:34.911Z,68.90
2018-10-18T12:13:36.895Z,68.80
2018-10-18T12:15:38.903Z,68.70
2018-10-18T12:17:40.900Z,68.90
2018-10-18T12:19:43.077Z,68.70
2018-10-18T12:21:45.059Z,68.70
2018-10-18T12:23:47.067Z,68.70
2018-10-18T12:25:49.048Z,68.70
2018-10-18T12:27:51.034Z,68.70
2018-10-18T12:29:53.059Z,68.70
2018-10-18T12:31:55.059Z,68.60
2018-10-18T12:33:57.049Z,68.60
2018-10-18T12:35:59.066Z,68.60
2018-10-18T12:38:01.100Z,68.60
2018-10-18T12:40:03.449Z,68.60
2018-10-18T12:42:05.514Z,68.50
2018-10-18T12:44:07.480Z,67.80
2018-10-18T12:46:09.456Z,68.40
2018-10-18T12:48:11.621Z,68.40
2018-10-18T12:50:13.732Z,68.40
2018-10-18T12:52:15.921Z,68.40
2018-10-18T12:54:18.004Z,68.20
2018-10-18T12:56:19.939Z,68.40
2018-10-18T12:58:21.976Z,68.10
2018-10-18T13:00:23.977Z,68.10
2018-10-18T13:02:25.958Z,68.20
2018-10-18T13:04:28.016Z,68.30
2018-10-18T13:06:30.018Z,68.30
2018-10-18T13:08:32.025Z,68.40
2018-10-18T13:10:34.088Z,68.40
2018-10-18T13:12:36.457Z,68.30
2018-10-18T13:14:38.350Z,68.40
2018-10-18T13:16:40.374Z,68.40
2018-10-18T13:18:42.373Z,68.20
2018-10-18T13:20:44.338Z,68.20
2018-10-18T13:22:46.397Z,68.20
2018-10-18T13:24:48.405Z,68.20
2018-10-18T13:26:50.399Z,68.40
2018-10-18T13:28:52.431Z,68.30
2018-10-18T13:30:54.419Z,68.40
2018-10-18T13:32:56.420Z,69.10
2018-10-18T13:34:58.451Z,68.20
2018-10-18T13:37:00.432Z,68.10
2018-10-18T13:39:02.605Z,68.10
2018-10-18T13:41:04.473Z,68.20
2018-10-18T13:43:06.516Z,67.90
2018-10-18T13:45:08.544Z,68.00
2018-10-18T13:47:10.540Z,68.10
2018-10-18T13:49:12.576Z,68.20
2018-10-18T13:51:14.563Z,68.00
2018-10-18T13:53:16.559Z,67.90
2018-10-18T13:55:18.569Z,68.00
2018-10-18T13:57:20.571Z,67.80
2018-10-18T13:59:22.675Z,67.70
2018-10-18T14:01:24.623Z,67.70
2018-10-18T14:03:26.687Z,67.60
2018-10-18T14:05:28.814Z,67.70
2018-10-18T14:07:30.772Z,67.60
2018-10-18T14:09:32.744Z,67.60
2018-10-18T14:11:34.787Z,67.60
2018-10-18T14:13:36.785Z,67.70
2018-10-18T14:15:38.806Z,67.80
2018-10-18T14:17:40.924Z,68.10
2018-10-18T14:19:42.810Z,68.10
2018-10-18T14:21:44.843Z,68.20
2018-10-18T14:23:46.889Z,68.20
2018-10-18T14:25:48.878Z,68.40
2018-10-18T14:27:50.912Z,68.40
2018-10-18T14:29:52.921Z,68.40
2018-10-18T14:31:54.952Z,68.60
2018-10-18T14:33:56.976Z,68.40
2018-10-18T14:35:58.999Z,68.60
2018-10-18T14:38:01.054Z,69.40
2018-10-18T14:40:03.032Z,68.60
2018-10-18T14:42:05.008Z,68.60
2018-10-18T14:44:07.050Z,68.90
2018-10-18T14:46:09.035Z,68.70
2018-10-18T14:48:11.072Z,68.70
2018-10-18T14:50:13.286Z,68.70
2018-10-18T14:52:15.178Z,68.70
2018-10-18T14:54:17.144Z,68.90
2018-10-18T14:56:19.142Z,68.90
2018-10-18T14:58:21.179Z,68.90
2018-10-18T15:00:23.289Z,69.00
2018-10-18T15:02:25.252Z,68.90
2018-10-18T15:04:27.341Z,68.90
2018-10-18T15:06:29.288Z,68.90
2018-10-18T15:08:31.273Z,68.90
2018-10-18T15:10:33.294Z,68.90
2018-10-18T15:12:35.284Z,68.20
2018-10-18T15:14:37.718Z,68.40
2018-10-18T15:16:39.851Z,68.70
2018-10-18T15:18:41.885Z,68.70
2018-10-18T15:20:43.866Z,68.90
2018-10-18T15:22:45.898Z,68.80
2018-10-18T15:24:47.893Z,68.70
2018-10-18T15:26:49.965Z,68.60
2018-10-18T15:28:51.955Z,68.70
2018-10-18T15:30:53.950Z,68.70
2018-10-18T15:32:56.006Z,68.70
2018-10-18T15:34:58.042Z,68.70
2018-10-18T15:37:00.013Z,68.50
2018-10-18T15:39:02.044Z,68.70
2018-10-18T15:41:04.095Z,68.20
2018-10-18T15:43:06.065Z,68.80
2018-10-18T15:45:08.115Z,68.70
2018-10-18T15:47:10.119Z,68.80
2018-10-18T15:49:12.118Z,68.70
2018-10-18T15:51:14.181Z,68.80
2018-10-18T15:53:16.340Z,69.00
2018-10-18T15:55:18.169Z,69.00
2018-10-18T15:57:20.192Z,68.40
2018-10-18T15:59:22.230Z,68.40
2018-10-18T16:01:24.238Z,68.40
2018-10-18T16:03:26.262Z,68.70
2018-10-18T16:05:28.302Z,68.50
2018-10-18T16:07:30.284Z,68.90
2018-10-18T16:09:32.266Z,68.60
2018-10-18T16:11:34.297Z,68.90
2018-10-18T16:13:36.293Z,68.70
2018-10-18T16:15:38.746Z,68.70
2018-10-18T16:17:40.885Z,68.70
2018-10-18T16:19:42.798Z,68.90
2018-10-18T16:21:44.804Z,68.70
2018-10-18T16:23:46.804Z,68.70
2018-10-18T16:25:48.830Z,69.00
2018-10-18T16:27:50.827Z,68.60
2018-10-18T16:29:52.848Z,68.90
2018-10-18T16:31:54.908Z,69.20
2018-10-18T16:33:56.984Z,69.00
2018-10-18T16:35:58.919Z,69.00
2018-10-18T16:38:00.944Z,68.70
2018-10-18T16:40:02.952Z,68.90
2018-10-18T16:42:05.062Z,69.20
2018-10-18T16:44:07.038Z,69.00
2018-10-18T16:46:09.059Z,68.90
2018-10-18T16:48:11.043Z,68.90
2018-10-18T16:50:13.357Z,69.10
2018-10-18T16:52:15.351Z,68.90
2018-10-18T16:54:17.356Z,69.00
2018-10-18T16:56:19.511Z,68.90
2018-10-18T16:58:22.614Z,69.00
2018-10-18T17:00:24.635Z,69.00
2018-10-18T17:02:26.651Z,68.90
2018-10-18T17:04:28.928Z,68.90
2018-10-18T17:06:30.885Z,68.90
2018-10-18T17:08:32.815Z,68.90
2018-10-18T17:10:34.846Z,68.90
2018-10-18T17:12:36.891Z,68.80
2018-10-18T17:14:38.914Z,69.00
2018-10-18T17:16:40.941Z,68.90
2018-10-18T17:18:42.975Z,69.00
2018-10-18T17:20:45.131Z,68.90
2018-10-18T17:22:47.410Z,68.90
2018-10-18T17:24:49.433Z,68.90
2018-10-18T17:26:51.518Z,68.90
2018-10-18T17:28:53.573Z,70.00
2018-10-18T17:30:55.585Z,68.90
2018-10-18T17:32:57.616Z,68.90
2018-10-18T17:34:59.651Z,68.90
2018-10-18T17:37:01.667Z,68.80
2018-10-18T17:39:03.674Z,68.90
2018-10-18T17:41:05.724Z,69.00
2018-10-18T17:43:07.724Z,69.00
2018-10-18T17:45:09.738Z,68.90
2018-10-18T17:47:11.870Z,68.80
2018-10-18T17:49:13.789Z,69.00
2018-10-18T17:51:15.856Z,69.00
2018-10-18T17:53:17.857Z,68.80
2018-10-18T17:55:19.876Z,69.00
2018-10-18T17:57:21.880Z,68.80
2018-10-18T17:59:23.912Z,68.80
2018-10-18T18:01:25.932Z,69.00
2018-10-18T18:03:27.921Z,69.00
2018-10-18T18:05:29.970Z,68.90
2018-10-18T18:07:31.984Z,69.20
2018-10-18T18:09:34.391Z,69.10
2018-10-18T18:11:36.404Z,69.90
2018-10-18T18:13:38.413Z,69.60
2018-10-18T18:15:40.436Z,69.40
2018-10-18T18:17:42.444Z,69.30
2018-10-18T18:19:44.481Z,69.00
2018-10-18T18:21:46.501Z,69.20
2018-10-18T18:23:48.557Z,69.30
2018-10-18T18:25:50.560Z,69.40
2018-10-18T18:27:52.592Z,69.40
2018-10-18T18:29:54.605Z,69.50
2018-10-18T18:31:56.723Z,69.50
2018-10-18T18:33:58.737Z,69.50
2018-10-18T18:36:00.805Z,69.50
2018-10-18T18:38:02.854Z,69.60
2018-10-18T18:40:04.901Z,69.70
2018-10-18T18:42:06.926Z,69.70
2018-10-18T18:44:08.926Z,70.00
2018-10-18T18:46:11.316Z,69.70
2018-10-18T18:48:13.301Z,69.70
2018-10-18T18:50:15.297Z,69.70
2018-10-18T18:52:17.310Z,69.70
2018-10-18T18:54:19.305Z,69.60
2018-10-18T18:56:21.323Z,69.70
2018-10-18T18:58:23.294Z,69.90
2018-10-18T19:00:25.379Z,70.00
2018-10-18T19:02:27.332Z,70.20
2018-10-18T19:04:29.361Z,70.10
2018-10-18T19:06:31.312Z,70.50
2018-10-18T19:08:33.344Z,70.40
2018-10-18T19:10:35.375Z,70.40
2018-10-18T19:12:37.348Z,70.60
2018-10-18T19:14:39.387Z,70.80
2018-10-18T19:16:41.375Z,70.70
2018-10-18T19:18:43.362Z,73.10
2018-10-18T19:20:45.369Z,72.40
2018-10-18T19:22:47.464Z,71.70
2018-10-18T19:24:49.360Z,71.60
2018-10-18T19:26:51.396Z,71.70
2018-10-18T19:28:53.411Z,72.00
2018-10-18T19:30:55.393Z,72.10
2018-10-18T19:32:57.430Z,72.00
2018-10-18T19:34:59.417Z,72.00
2018-10-18T19:37:01.414Z,71.80
2018-10-18T19:39:03.425Z,71.90
2018-10-18T19:41:05.454Z,71.80
2018-10-18T19:43:07.457Z,71.80
2018-10-18T19:45:09.500Z,72.50
2018-10-18T19:47:11.513Z,72.00
2018-10-18T19:49:13.515Z,71.50
2018-10-18T19:51:15.500Z,71.90
2018-10-18T19:53:17.532Z,72.00
2018-10-18T19:55:19.523Z,71.70
2018-10-18T19:57:21.571Z,71.80
2018-10-18T19:59:23.580Z,71.20
2018-10-18T20:01:25.559Z,71.30
2018-10-18T20:03:27.569Z,71.40
2018-10-18T20:05:29.612Z,71.80
2018-10-18T20:07:31.593Z,71.70
2018-10-18T20:09:33.616Z,71.20
2018-10-18T20:11:35.598Z,71.00
2018-10-18T20:13:37.590Z,71.70
2018-10-18T20:15:39.692Z,70.60
2018-10-18T20:17:41.643Z,70.60
2018-10-18T20:19:43.630Z,71.30
2018-10-18T20:21:45.664Z,70.60
2018-10-18T20:23:47.656Z,70.60
2018-10-18T20:25:49.807Z,70.00
2018-10-18T20:27:51.710Z,70.10
2018-10-18T20:29:53.707Z,70.30
2018-10-18T20:31:55.701Z,70.00
2018-10-18T20:33:57.721Z,70.50
2018-10-18T20:35:59.762Z,70.70
2018-10-18T20:38:01.754Z,69.90
2018-10-18T20:40:03.746Z,70.40
2018-10-18T20:42:05.846Z,69.60
2018-10-18T20:44:07.859Z,69.70
2018-10-18T20:46:09.844Z,69.60
2018-10-18T20:48:12.023Z,69.40
2018-10-18T20:50:14.143Z,69.70
2018-10-18T20:52:16.154Z,69.50
2018-10-18T20:54:18.176Z,69.70
2018-10-18T20:56:20.191Z,69.70
2018-10-18T20:58:22.236Z,69.90
2018-10-18T21:00:24.647Z,69.50
2018-10-18T21:02:26.636Z,69.70
2018-10-18T21:04:28.618Z,69.90
2018-10-18T21:06:30.862Z,69.40
2018-10-18T21:08:32.654Z,69.70
2018-10-18T21:10:34.726Z,69.40
2018-10-18T21:12:36.760Z,69.50
2018-10-18T21:14:38.712Z,69.50
2018-10-18T21:16:40.775Z,69.60
2018-10-18T21:18:42.762Z,70.00
2018-10-18T21:20:44.793Z,70.10
2018-10-18T21:22:46.776Z,70.20
2018-10-18T21:24:48.797Z,70.20
2018-10-18T21:26:50.819Z,70.00
2018-10-18T21:28:53.329Z,70.20
2018-10-18T21:30:55.355Z,70.30
2018-10-18T21:32:57.399Z,70.30
2018-10-18T21:34:59.443Z,70.40
2018-10-18T21:37:01.447Z,70.60
2018-10-18T21:39:03.455Z,70.40
2018-10-18T21:41:05.485Z,70.50
2018-10-18T21:43:07.466Z,70.40
2018-10-18T21:45:09.500Z,70.50
2018-10-18T21:47:11.518Z,70.50
2018-10-18T21:49:13.552Z,70.50
2018-10-18T21:51:15.527Z,70.50
2018-10-18T21:53:17.547Z,70.60
2018-10-18T21:55:19.584Z,70.70
2018-10-18T21:57:21.608Z,70.50
2018-10-18T21:59:23.628Z,70.40
2018-10-18T22:01:25.630Z,70.40
2018-10-18T22:03:27.643Z,70.50
2018-10-18T22:05:29.665Z,70.50
2018-10-18T22:07:31.650Z,70.50
2018-10-18T22:09:33.666Z,70.20
2018-10-18T22:11:35.687Z,70.30
2018-10-18T22:13:37.721Z,70.50
2018-10-18T22:15:39.744Z,70.50
2018-10-18T22:17:41.750Z,70.20
2018-10-18T22:19:43.761Z,70.40
2018-10-18T22:21:45.807Z,70.50
2018-10-18T22:23:47.783Z,70.50
2018-10-18T22:25:49.819Z,70.70
2018-10-18T22:27:51.840Z,70.90
2018-10-18T22:29:53.821Z,70.90
2018-10-18T22:31:55.811Z,70.90
2018-10-18T22:33:57.815Z,70.90
2018-10-18T22:35:59.797Z,70.90
2018-10-18T22:38:01.823Z,70.90
2018-10-18T22:40:03.817Z,70.90
2018-10-18T22:42:05.853Z,71.00
2018-10-18T22:44:07.835Z,70.90
2018-10-18T22:46:09.817Z,70.90
2018-10-18T22:48:11.837Z,70.90
2018-10-18T22:50:13.867Z,70.90
2018-10-18T22:52:15.863Z,70.90
2018-10-18T22:54:17.873Z,70.90
2018-10-18T22:56:19.860Z,70.90
2018-10-18T22:58:21.855Z,71.00
2018-10-18T23:00:23.861Z,70.90
2018-10-18T23:02:25.850Z,70.90
2018-10-18T23:04:27.849Z,70.90
2018-10-18T23:06:29.909Z,71.70
2018-10-18T23:08:31.948Z,70.90
2018-10-18T23:10:33.957Z,70.90
2018-10-18T23:12:36.010Z,70.90
2018-10-18T23:14:38.018Z,70.90
2018-10-18T23:16:40.022Z,70.90
2018-10-18T23:18:42.021Z,70.90
2018-10-18T23:20:44.032Z,70.90
2018-10-18T23:22:46.068Z,70.70
2018-10-18T23:24:48.047Z,70.90
2018-10-18T23:26:50.055Z,70.80
2018-10-18T23:28:52.060Z,70.70
2018-10-18T23:30:54.078Z,70.70
2018-10-18T23:32:56.091Z,70.70
2018-10-18T23:34:58.087Z,70.70
2018-10-18T23:37:00.107Z,70.70
2018-10-18T23:39:02.183Z,70.70
2018-10-18T23:41:04.196Z,70.70
2018-10-18T23:43:06.156Z,70.60
2018-10-18T23:45:08.205Z,70.70
2018-10-18T23:47:10.224Z,70.70
2018-10-18T23:49:12.200Z,70.60
2018-10-18T23:51:14.283Z,70.50
2018-10-18T23:53:16.197Z,70.70
2018-10-18T23:55:18.228Z,70.60
2018-10-18T23:57:20.256Z,70.50
2018-10-18T23:59:22.294Z,70.30
